Time;durP1;ratioP1;P1;durP2;ratioP2;P2;SDS_P1;SDS_P2;PMS_P1;PMS_P2;Temp;Humidity;BMP_temperature;BMP_pressure;BME280_temperature;BME280_humidity;BME280_pressure;Samples;Min_cycle;Max_cycle;Signal;HPM_P1;HPM_P2
2020/12/03 00:00:48;;;;;;;8.32;6.63;;;2.20;94.00;;;;;;5056487;28;20026;-73
2020/12/03 00:03:19;;;;;;;7.22;6.47;;;2.30;94.10;;;;;;5056343;28;20048;-73
2020/12/03 00:05:52;;;;;;;8.00;6.18;;;2.20;94.10;;;;;;5055247;28;20029;-73
2020/12/03 00:08:19;;;;;;;7.53;6.47;;;2.10;94.40;;;;;;5056361;28;20025;-73
2020/12/03 00:10:45;;;;;;;7.82;6.22;;;2.00;94.50;;;;;;5056820;28;20302;-73
2020/12/03 00:13:18;;;;;;;8.13;6.07;;;1.90;94.40;;;;;;5056212;28;20112;-73
2020/12/03 00:15:49;;;;;;;8.18;5.53;;;1.90;94.40;;;;;;5056313;28;20444;-73
2020/12/03 00:18:15;;;;;;;7.28;5.32;;;1.80;94.60;;;;;;5056038;28;20045;-73
2020/12/03 00:20:40;;;;;;;10.05;5.32;;;1.80;94.80;;;;;;5056209;28;20032;-74
2020/12/03 00:23:06;;;;;;;5.32;4.60;;;1.80;94.50;;;;;;5056154;28;20055;-73
2020/12/03 00:25:32;;;;;;;5.15;4.55;;;1.80;94.60;;;;;;5056105;28;20029;-74
2020/12/03 00:27:58;;;;;;;5.90;4.95;;;1.80;94.40;;;;;;5058112;28;20029;-73
2020/12/03 00:30:24;;;;;;;5.35;4.43;;;1.80;94.70;;;;;;5060137;28;20298;-74
2020/12/03 00:32:50;;;;;;;5.20;4.07;;;1.80;94.70;;;;;;5059936;28;20491;-73
2020/12/03 00:35:19;;;;;;;3.95;3.55;;;1.80;94.80;;;;;;5059823;28;20029;-74
2020/12/03 00:37:44;;;;;;;4.60;3.30;;;1.80;95.00;;;;;;5059660;28;20017;-73
2020/12/03 00:40:10;;;;;;;4.00;3.40;;;1.80;95.30;;;;;;5059837;28;20298;-73
2020/12/03 00:42:36;;;;;;;4.65;3.42;;;1.90;95.30;;;;;;5059764;28;20017;-73
2020/12/03 00:45:04;;;;;;;3.60;3.10;;;2.00;94.80;;;;;;5059553;28;20432;-73
2020/12/03 00:47:29;;;;;;;4.45;3.05;;;2.10;94.40;;;;;;5059607;28;20044;-73
2020/12/03 00:49:56;;;;;;;4.25;3.28;;;2.10;94.30;;;;;;5042284;28;20025;-73
2020/12/03 00:52:22;;;;;;;3.42;2.95;;;2.10;94.60;;;;;;5059562;28;20351;-74
2020/12/03 00:54:48;;;;;;;3.75;2.92;;;2.10;94.40;;;;;;5059483;28;20032;-74
2020/12/03 00:57:13;;;;;;;3.20;2.70;;;2.10;94.50;;;;;;5059477;28;20379;-73
2020/12/03 00:59:39;;;;;;;4.65;2.90;;;2.10;94.40;;;;;;5041736;28;20037;-74
2020/12/03 01:02:09;;;;;;;3.08;2.58;;;2.10;94.40;;;;;;5059419;28;20024;-74
2020/12/03 01:04:35;;;;;;;2.90;2.40;;;2.10;94.60;;;;;;5059311;28;20032;-74
2020/12/03 01:07:01;;;;;;;2.65;2.40;;;2.20;94.30;;;;;;5059250;28;20018;-74
2020/12/03 01:09:27;;;;;;;2.92;2.30;;;2.30;93.70;;;;;;5059425;28;20033;-74
2020/12/03 01:11:52;;;;;;;2.95;2.50;;;2.30;93.90;;;;;;5059231;28;20409;-74
2020/12/03 01:14:18;;;;;;;2.78;2.30;;;2.40;93.90;;;;;;5059131;28;20036;-74
2020/12/03 01:16:45;;;;;;;3.20;2.55;;;2.40;93.60;;;;;;5059146;28;20048;-74
2020/12/03 01:19:11;;;;;;;3.15;2.58;;;2.40;93.20;;;;;;5059015;28;20041;-74
2020/12/03 01:21:37;;;;;;;2.70;2.30;;;2.40;93.60;;;;;;5058999;28;20017;-74
2020/12/03 01:24:02;;;;;;;3.28;2.65;;;2.40;94.10;;;;;;5058919;28;20364;-74
2020/12/03 01:26:28;;;;;;;2.97;2.50;;;2.50;94.20;;;;;;5058900;28;20432;-74
2020/12/03 01:28:54;;;;;;;3.38;2.55;;;2.50;94.20;;;;;;5059492;28;20025;-74
2020/12/03 01:31:19;;;;;;;3.22;2.72;;;2.30;94.20;;;;;;5058797;28;20029;-73
2020/12/03 01:33:45;;;;;;;3.50;2.72;;;2.30;94.40;;;;;;5058754;28;20033;-74
2020/12/03 01:36:14;;;;;;;2.88;2.20;;;2.30;94.70;;;;;;5058727;28;20025;-74
2020/12/03 01:38:42;;;;;;;2.90;2.60;;;2.30;94.90;;;;;;5057708;28;20040;-74
2020/12/03 01:41:08;;;;;;;3.28;2.70;;;2.30;94.50;;;;;;5058960;28;20039;-74
2020/12/03 01:43:33;;;;;;;2.92;2.50;;;2.30;94.60;;;;;;5058593;28;20060;-74
2020/12/03 01:46:01;;;;;;;3.40;2.70;;;2.30;94.60;;;;;;5058843;28;20401;-74
2020/12/03 01:48:45;;;;;;;3.20;2.60;;;2.20;94.90;;;;;;5058524;28;20025;-74
2020/12/03 01:51:16;;;;;;;3.15;2.60;;;2.20;95.10;;;;;;5058617;28;20029;-74
2020/12/03 01:53:43;;;;;;;3.67;2.53;;;2.20;95.10;;;;;;5058352;28;20025;-74
2020/12/03 01:56:26;;;;;;;3.83;2.22;;;2.30;95.30;;;;;;5058371;28;20017;-74
2020/12/03 01:58:54;;;;;;;2.90;2.03;;;2.30;95.00;;;;;;5058576;28;20025;-74
2020/12/03 02:01:19;;;;;;;2.10;1.60;;;2.30;95.10;;;;;;5058290;28;20099;-74
2020/12/03 02:03:47;;;;;;;2.40;2.10;;;2.40;94.70;;;;;;5058239;28;20113;-74
2020/12/03 02:06:26;;;;;;;3.10;2.60;;;2.40;93.90;;;;;;5058211;28;20021;-73
2020/12/03 02:08:52;;;;;;;2.85;2.55;;;2.50;92.90;;;;;;5058083;28;20029;-73
2020/12/03 02:11:19;;;;;;;3.47;2.63;;;2.50;92.30;;;;;;5058328;28;20028;-73
2020/12/03 02:14:00;;;;;;;2.80;2.40;;;2.50;91.90;;;;;;5057985;28;20109;-73
2020/12/03 02:16:29;;;;;;;2.55;2.17;;;2.50;91.90;;;;;;5058083;28;20037;-74
2020/12/03 02:18:55;;;;;;;3.15;2.40;;;2.50;92.10;;;;;;5057899;28;20037;-73
2020/12/03 02:21:21;;;;;;;2.45;2.20;;;2.50;92.60;;;;;;5057879;28;20020;-73
2020/12/03 02:23:47;;;;;;;3.38;2.70;;;2.30;92.90;;;;;;5057767;28;20348;-73
2020/12/03 02:26:13;;;;;;;2.10;1.77;;;2.30;93.70;;;;;;5056976;28;20465;-73
2020/12/03 02:28:39;;;;;;;2.22;1.85;;;2.30;93.90;;;;;;5057715;28;20033;-73
2020/12/03 02:31:05;;;;;;;2.38;1.88;;;2.30;94.10;;;;;;5057764;28;20021;-73
2020/12/03 02:33:30;;;;;;;3.55;2.20;;;2.30;93.50;;;;;;5057692;28;20032;-74
2020/12/03 02:35:57;;;;;;;2.30;1.60;;;2.50;92.90;;;;;;5057791;28;20024;-73
2020/12/03 02:38:24;;;;;;;2.28;1.70;;;2.50;92.30;;;;;;5057451;28;20055;-73
2020/12/03 02:40:50;;;;;;;2.30;1.92;;;2.60;92.30;;;;;;5057561;28;20024;-73
2020/12/03 02:43:16;;;;;;;2.10;1.60;;;2.60;92.50;;;;;;5057511;28;20071;-73
2020/12/03 02:45:43;;;;;;;1.98;1.67;;;2.60;92.50;;;;;;5057538;28;20477;-73
2020/12/03 02:48:09;;;;;;;2.25;2.00;;;2.60;92.70;;;;;;5057438;28;20036;-74
2020/12/03 02:50:34;;;;;;;2.50;1.90;;;2.60;93.20;;;;;;5057485;28;20021;-74
2020/12/03 02:53:00;;;;;;;2.58;2.00;;;2.60;93.70;;;;;;5057302;28;20320;-73
2020/12/03 02:55:26;;;;;;;2.33;1.98;;;2.50;93.80;;;;;;5057223;28;20075;-73
2020/12/03 02:57:51;;;;;;;2.47;1.83;;;2.40;94.20;;;;;;5057144;28;20032;-73
2020/12/03 03:00:17;;;;;;;2.72;2.40;;;2.30;94.90;;;;;;5057252;28;20478;-73
2020/12/03 03:02:43;;;;;;;2.00;1.77;;;2.30;94.70;;;;;;5057104;28;20317;-73
2020/12/03 03:05:09;;;;;;;2.92;1.90;;;2.30;95.20;;;;;;5039343;28;20021;-73
2020/12/03 03:07:34;;;;;;;1.98;1.50;;;2.30;95.50;;;;;;5057256;28;20405;-74
2020/12/03 03:10:00;;;;;;;2.40;1.85;;;2.30;95.40;;;;;;5057104;28;20017;-73
2020/12/03 03:12:26;;;;;;;1.70;1.35;;;2.40;95.00;;;;;;5056965;28;20031;-74
2020/12/03 03:14:53;;;;;;;2.95;1.77;;;2.50;94.70;;;;;;5056807;28;20028;-74
2020/12/03 03:17:20;;;;;;;4.20;1.60;;;2.50;94.50;;;;;;5056725;28;20033;-74
2020/12/03 03:19:46;;;;;;;1.83;1.25;;;2.60;94.60;;;;;;5056768;28;20048;-74
2020/12/03 03:22:12;;;;;;;2.40;1.60;;;2.60;94.60;;;;;;5056910;28;20025;-74
2020/12/03 03:24:37;;;;;;;2.65;1.52;;;2.60;94.40;;;;;;5056837;28;20104;-74
2020/12/03 03:27:03;;;;;;;2.63;1.65;;;2.70;94.10;;;;;;5056881;28;20029;-74
2020/12/03 03:29:29;;;;;;;2.35;1.60;;;2.60;94.50;;;;;;5057012;28;20032;-73
2020/12/03 03:31:54;;;;;;;2.55;1.95;;;2.60;94.10;;;;;;5056693;28;20025;-73
2020/12/03 03:34:20;;;;;;;2.55;1.90;;;2.60;94.40;;;;;;5056657;28;20060;-74
2020/12/03 03:36:46;;;;;;;1.52;1.10;;;2.60;94.20;;;;;;5056716;28;20022;-74
2020/12/03 03:39:18;;;;;;;2.50;1.45;;;2.50;94.00;;;;;;5056573;28;20028;-74
2020/12/03 03:41:44;;;;;;;2.15;1.58;;;2.60;93.70;;;;;;5038949;28;20422;-73
2020/12/03 03:44:09;;;;;;;1.60;1.20;;;2.60;92.80;;;;;;5056525;28;20029;-73
2020/12/03 03:46:35;;;;;;;1.55;1.20;;;2.70;92.40;;;;;;5056906;28;20079;-73
2020/12/03 03:49:01;;;;;;;1.30;1.00;;;2.70;91.60;;;;;;5056548;28;20170;-73
2020/12/03 03:51:27;;;;;;;1.63;1.10;;;2.70;90.70;;;;;;5056763;28;20059;-73
2020/12/03 03:53:52;;;;;;;1.98;1.50;;;2.80;91.00;;;;;;5056454;28;20029;-73
2020/12/03 03:56:19;;;;;;;1.70;1.48;;;2.80;91.00;;;;;;5056490;28;20092;-73
2020/12/03 03:58:44;;;;;;;2.35;1.42;;;2.80;92.30;;;;;;5055311;28;20052;-73
2020/12/03 04:01:10;;;;;;;1.42;1.15;;;2.70;92.60;;;;;;5056461;28;20060;-74
2020/12/03 04:03:36;;;;;;;1.83;1.40;;;2.80;93.60;;;;;;5059529;28;20489;-74
2020/12/03 04:06:01;;;;;;;4.07;1.88;;;2.80;93.90;;;;;;5060806;28;20095;-74
2020/12/03 04:08:27;;;;;;;2.22;1.63;;;2.70;93.90;;;;;;5060426;28;20104;-73
2020/12/03 04:10:54;;;;;;;2.97;1.67;;;2.60;94.20;;;;;;5059353;28;20029;-73
2020/12/03 04:13:22;;;;;;;3.92;1.90;;;2.60;94.40;;;;;;5060316;28;20052;-73
2020/12/03 04:15:48;;;;;;;2.20;1.80;;;2.50;94.60;;;;;;5060388;28;20025;-73
2020/12/03 04:18:14;;;;;;;2.47;2.10;;;2.50;94.80;;;;;;5058892;28;20111;-74
2020/12/03 04:20:39;;;;;;;2.40;1.90;;;2.50;94.80;;;;;;5060700;28;20111;-74
2020/12/03 04:23:05;;;;;;;2.22;1.80;;;2.50;95.00;;;;;;5060137;28;20036;-73
2020/12/03 04:25:32;;;;;;;2.05;1.60;;;2.50;95.00;;;;;;5060030;28;20100;-73
2020/12/03 04:27:58;;;;;;;2.00;1.70;;;2.50;95.10;;;;;;5060023;28;20081;-73
2020/12/03 04:30:23;;;;;;;2.67;1.92;;;2.50;95.20;;;;;;5060168;28;20053;-73
2020/12/03 04:32:49;;;;;;;2.08;1.48;;;2.50;95.20;;;;;;5060002;28;20033;-74
2020/12/03 04:35:17;;;;;;;2.35;2.15;;;2.50;95.00;;;;;;5059989;28;20032;-73
2020/12/03 04:37:49;;;;;;;2.40;1.80;;;2.40;95.10;;;;;;5059900;28;20025;-73
2020/12/03 04:40:43;;;;;;;2.00;1.63;;;2.40;95.40;;;;;;5059949;28;20014;-73
2020/12/03 04:43:28;;;;;;;2.35;1.60;;;2.40;95.60;;;;;;5056695;28;20083;-73
2020/12/03 04:46:01;;;;;;;2.10;1.50;;;2.50;95.70;;;;;;5059881;28;20032;-73
2020/12/03 04:48:47;;;;;;;2.67;1.40;;;2.50;95.30;;;;;;5059720;28;20436;-73
2020/12/03 04:51:32;;;;;;;;;;;2.50;95.50;;;;;;5059026;28;20036;-73
2020/12/03 04:54:16;;;;;;;1.60;1.40;;;2.60;95.40;;;;;;5059962;28;20216;-73
2020/12/03 04:57:21;;;;;;;82.53;3.97;;;2.60;95.70;;;;;;5059539;28;20028;-73
2020/12/03 05:00:13;;;;;;;104.00;7.97;;;2.70;95.40;;;;;;5059712;28;20163;-73
2020/12/03 05:03:03;;;;;;;106.25;4.97;;;2.70;95.10;;;;;;5040383;28;20041;-73
2020/12/03 05:05:41;;;;;;;147.68;5.95;;;2.70;94.90;;;;;;5059853;28;20025;-73
2020/12/03 05:08:14;;;;;;;42.30;2.83;;;2.70;94.80;;;;;;5059383;28;20024;-73
2020/12/03 05:10:47;;;;;;;4.68;2.00;;;2.70;94.90;;;;;;5059329;28;20033;-73
2020/12/03 05:13:24;;;;;;;3.10;2.20;;;2.70;94.80;;;;;;5059221;28;20029;-74
2020/12/03 05:15:56;;;;;;;4.75;2.10;;;2.70;94.50;;;;;;5059281;28;20037;-73
2020/12/03 05:18:43;;;;;;;5.70;2.20;;;2.70;94.60;;;;;;5058890;28;20053;-73
2020/12/03 05:21:14;;;;;;;21.00;2.67;;;2.80;94.60;;;;;;5059453;28;20035;-73
2020/12/03 05:23:40;;;;;;;273.88;12.95;;;2.80;94.20;;;;;;5059466;28;20025;-73
2020/12/03 05:26:22;;;;;;;248.25;12.02;;;2.90;94.50;;;;;;5058972;28;20424;-73
2020/12/03 05:29:01;;;;;;;326.92;10.32;;;2.90;94.50;;;;;;5058969;28;20074;-73
2020/12/03 05:31:31;;;;;;;368.20;16.65;;;2.90;94.70;;;;;;5058910;28;20417;-73
2020/12/03 05:34:08;;;;;;;271.25;8.35;;;2.90;94.40;;;;;;5058804;28;20032;-73
2020/12/03 05:36:38;;;;;;;189.70;7.32;;;2.90;94.40;;;;;;5057752;28;20082;-73
2020/12/03 05:39:07;;;;;;;234.43;8.88;;;2.80;94.60;;;;;;5058850;28;20060;-73
2020/12/03 05:41:38;;;;;;;207.23;8.48;;;2.80;94.80;;;;;;5058646;28;20029;-73
2020/12/03 05:44:25;;;;;;;456.67;14.50;;;2.80;94.80;;;;;;5058590;28;20025;-74
2020/12/03 05:46:52;;;;;;;460.88;15.18;;;2.80;94.70;;;;;;5059084;28;20029;-74
2020/12/03 05:49:21;;;;;;;583.97;16.38;;;2.70;94.70;;;;;;5058580;28;20033;-74
2020/12/03 05:52:03;;;;;;;156.80;7.25;;;2.70;95.00;;;;;;5058463;28;20103;-73
2020/12/03 05:54:28;;;;;;;119.70;5.32;;;2.70;95.30;;;;;;5058407;28;20111;-73
2020/12/03 05:56:54;;;;;;;558.65;20.63;;;2.70;95.20;;;;;;5058567;28;20079;-74
2020/12/03 05:59:24;;;;;;;411.63;14.02;;;2.70;95.00;;;;;;5058553;28;20036;-74
2020/12/03 06:02:02;;;;;;;326.83;10.93;;;2.70;95.10;;;;;;5058489;28;20055;-73
2020/12/03 06:04:52;;;;;;;424.80;22.73;;;2.70;95.30;;;;;;5057157;28;20134;-73
2020/12/03 06:07:25;;;;;;;1197.93;53.50;;;2.70;95.40;;;;;;5058252;28;20086;-74
2020/12/03 06:10:14;;;;;;;1118.40;67.10;;;2.70;95.20;;;;;;5058359;28;20488;-74
2020/12/03 06:13:02;;;;;;;399.65;20.42;;;2.70;95.00;;;;;;5058107;28;20352;-73
2020/12/03 06:15:55;;;;;;;955.55;40.15;;;2.70;95.10;;;;;;5057939;28;20025;-73
2020/12/03 06:18:45;;;;;;;983.33;44.95;;;2.70;95.20;;;;;;5057755;28;20056;-73
2020/12/03 06:21:33;;;;;;;854.67;34.53;;;2.60;95.20;;;;;;5058088;28;20409;-73
2020/12/03 06:24:10;;;;;;;678.67;32.75;;;2.60;95.40;;;;;;5057764;28;20021;-73
2020/12/03 06:27:28;;;;;;;155.10;10.27;;;2.60;95.40;;;;;;5057365;28;20021;-73
2020/12/03 06:30:18;;;;;;;674.30;27.92;;;2.60;95.20;;;;;;5047234;28;20052;-74
2020/12/03 06:33:30;;;;;;;570.55;18.63;;;2.60;95.50;;;;;;5057742;28;20017;-73
2020/12/03 06:36:02;;;;;;;241.32;10.00;;;2.60;95.50;;;;;;5058123;28;20021;-73
2020/12/03 06:38:44;;;;;;;834.60;36.80;;;2.60;95.50;;;;;;5057840;28;20029;-74
2020/12/03 06:41:33;;;;;;;692.58;27.45;;;2.60;95.50;;;;;;5057595;28;20061;-74
2020/12/03 06:44:16;;;;;;;706.05;27.30;;;2.60;95.10;;;;;;5057455;28;20325;-73
2020/12/03 06:47:14;;;;;;;141.82;9.73;;;2.60;95.10;;;;;;5057878;28;20103;-74
2020/12/03 06:49:43;;;;;;;820.35;36.50;;;2.50;95.30;;;;;;5054208;28;20095;-74
2020/12/03 06:52:27;;;;;;;717.00;26.65;;;2.60;95.30;;;;;;5057476;28;20028;-74
2020/12/03 06:55:12;;;;;;;794.55;31.20;;;2.60;94.70;;;;;;5057309;28;20409;-74
2020/12/03 06:58:06;;;;;;;618.72;27.05;;;2.50;94.40;;;;;;5057385;28;20118;-74
2020/12/03 07:01:04;;;;;;;154.93;8.95;;;2.40;95.00;;;;;;5057369;28;20029;-74
2020/12/03 07:03:48;;;;;;;673.47;24.23;;;2.30;95.00;;;;;;5056031;28;20033;-74
2020/12/03 07:06:17;;;;;;;708.85;29.00;;;2.30;95.30;;;;;;5057270;28;20295;-73
2020/12/03 07:09:20;;;;;;;789.58;27.25;;;2.30;95.40;;;;;;5057028;28;20506;-74
2020/12/03 07:12:10;;;;;;;743.75;27.13;;;2.30;95.70;;;;;;5057156;28;20104;-74
2020/12/03 07:14:56;;;;;;;635.28;27.48;;;2.30;95.70;;;;;;5057172;28;20081;-73
2020/12/03 07:17:30;;;;;;;810.00;30.90;;;2.20;95.90;;;;;;5056008;28;20132;-74
2020/12/03 07:20:16;;;;;;;486.15;17.92;;;2.30;96.00;;;;;;5057130;28;20040;-74
2020/12/03 07:23:37;;;;;;;497.92;25.20;;;2.30;95.90;;;;;;5055864;28;20032;-73
2020/12/03 07:26:13;;;;;;;513.75;22.75;;;2.30;96.00;;;;;;5018525;28;20033;-74
2020/12/03 07:28:43;;;;;;;591.80;22.98;;;2.30;96.30;;;;;;5056811;28;20048;-73
2020/12/03 07:31:25;;;;;;;497.65;24.80;;;2.30;96.40;;;;;;5056818;28;20033;-73
2020/12/03 07:34:03;;;;;;;270.67;13.18;;;2.40;96.40;;;;;;5055593;28;20032;-73
2020/12/03 07:36:45;;;;;;;640.38;25.58;;;2.50;96.40;;;;;;5055038;28;20044;-74
2020/12/03 07:39:16;;;;;;;784.25;29.20;;;2.50;95.60;;;;;;5056765;28;20024;-74
2020/12/03 07:41:47;;;;;;;1002.67;50.22;;;2.50;95.50;;;;;;5056609;28;20029;-73
2020/12/03 07:44:29;;;;;;;1089.22;50.92;;;2.40;95.70;;;;;;5056531;28;20060;-73
2020/12/03 07:47:14;;;;;;;1136.80;63.45;;;2.40;95.50;;;;;;5056524;28;20078;-73
2020/12/03 07:49:45;;;;;;;924.20;40.05;;;2.30;95.70;;;;;;5056564;28;20060;-73
2020/12/03 07:52:20;;;;;;;899.92;43.10;;;2.30;96.20;;;;;;5056595;28;20036;-73
2020/12/03 07:54:45;;;;;;;1324.05;62.70;;;2.30;96.20;;;;;;5056237;28;20055;-74
2020/12/03 07:57:33;;;;;;;702.58;28.63;;;2.40;96.10;;;;;;5055427;28;20374;-73
2020/12/03 08:00:19;;;;;;;837.75;31.92;;;2.40;96.00;;;;;;5056611;28;20025;-73
2020/12/03 08:02:53;;;;;;;763.25;37.67;;;2.40;95.90;;;;;;5056199;28;20378;-73
2020/12/03 08:05:51;;;;;;;385.65;17.42;;;2.50;95.60;;;;;;5056397;28;20022;-73
2020/12/03 08:08:32;;;;;;;561.45;27.17;;;2.50;95.70;;;;;;5020764;28;20034;-74
2020/12/03 08:10:58;;;;;;;667.30;22.63;;;2.50;95.70;;;;;;5056881;28;20017;-73
2020/12/03 08:13:41;;;;;;;574.38;22.90;;;2.50;95.30;;;;;;5056281;28;20432;-73
2020/12/03 08:16:30;;;;;;;487.35;21.48;;;2.60;95.40;;;;;;5056740;28;20028;-73
2020/12/03 08:19:22;;;;;;;301.75;11.60;;;2.50;95.30;;;;;;5056334;28;20069;-73
2020/12/03 08:21:49;;;;;;;506.60;22.73;;;2.60;95.60;;;;;;5055793;28;20183;-73
2020/12/03 08:24:25;;;;;;;251.70;11.60;;;2.60;95.50;;;;;;5056179;28;20024;-73
2020/12/03 08:27:20;;;;;;;400.63;15.63;;;2.60;95.30;;;;;;5056384;28;20021;-73
2020/12/03 08:29:45;;;;;;;215.00;7.28;;;2.70;94.70;;;;;;5051745;28;20404;-73
2020/12/03 08:32:11;;;;;;;134.60;7.70;;;2.70;94.20;;;;;;5056169;28;20083;-73
2020/12/03 08:34:39;;;;;;;330.58;12.27;;;2.70;94.80;;;;;;5056077;28;20067;-74
2020/12/03 08:37:10;;;;;;;474.33;18.88;;;2.80;94.90;;;;;;5056184;28;20051;-73
2020/12/03 08:39:37;;;;;;;286.45;14.00;;;2.80;94.40;;;;;;5056047;28;20036;-73
2020/12/03 08:42:06;;;;;;;180.57;10.57;;;2.90;95.00;;;;;;5056042;28;20501;-73
2020/12/03 08:44:33;;;;;;;9.55;5.47;;;2.90;95.40;;;;;;5055941;28;20017;-74
2020/12/03 08:47:05;;;;;;;6.72;6.03;;;3.00;93.80;;;;;;5056482;28;20302;-73
2020/12/03 08:49:30;;;;;;;10.98;5.43;;;2.90;93.70;;;;;;5058785;28;20036;-74
2020/12/03 08:51:59;;;;;;;55.45;8.10;;;3.00;93.80;;;;;;5059722;28;20029;-74
2020/12/03 08:54:32;;;;;;;7.30;6.25;;;3.20;94.40;;;;;;5059513;28;20047;-73
2020/12/03 08:57:02;;;;;;;6.68;5.82;;;3.30;93.50;;;;;;5059550;28;20036;-73
2020/12/03 08:59:33;;;;;;;286.83;17.30;;;3.40;93.50;;;;;;5060041;28;20079;-73
2020/12/03 09:02:11;;;;;;;508.75;27.88;;;3.50;94.20;;;;;;5041788;28;20031;-73
2020/12/03 09:04:46;;;;;;;437.42;21.92;;;3.60;92.00;;;;;;5059365;28;20025;-74
2020/12/03 09:07:15;;;;;;;200.37;12.43;;;3.50;92.00;;;;;;5059498;28;20025;-73
2020/12/03 09:09:44;;;;;;;37.63;7.32;;;3.50;92.80;;;;;;5059588;28;20029;-73
2020/12/03 09:12:13;;;;;;;2.90;2.58;;;3.50;93.60;;;;;;5059239;28;20029;-73
2020/12/03 09:14:42;;;;;;;2.92;2.63;;;3.50;91.50;;;;;;5059413;28;20527;-73
2020/12/03 09:17:12;;;;;;;13.70;4.65;;;3.60;91.70;;;;;;5059001;28;20048;-74
2020/12/03 09:19:38;;;;;;;306.42;16.85;;;3.70;92.70;;;;;;5059139;28;20037;-74
2020/12/03 09:22:06;;;;;;;54.65;10.48;;;3.60;93.40;;;;;;5059083;28;20434;-74
2020/12/03 09:24:34;;;;;;;771.53;30.55;;;3.70;93.60;;;;;;5058717;28;20163;-73
2020/12/03 09:27:03;;;;;;;66.35;9.15;;;3.80;91.70;;;;;;5059103;28;20036;-73
2020/12/03 09:29:29;;;;;;;2.00;1.70;;;3.70;92.00;;;;;;5059225;28;20032;-73
2020/12/03 09:32:04;;;;;;;116.72;9.27;;;3.70;91.30;;;;;;5058890;28;20025;-73
2020/12/03 09:34:33;;;;;;;140.55;10.48;;;3.60;92.60;;;;;;5058895;28;20448;-73
2020/12/03 09:37:01;;;;;;;985.60;43.53;;;3.60;94.00;;;;;;5058767;28;20053;-73
2020/12/03 09:39:29;;;;;;;242.40;15.95;;;3.70;95.00;;;;;;5059077;28;20353;-74
2020/12/03 09:41:56;;;;;;;874.85;34.20;;;3.60;94.30;;;;;;5058655;28;20096;-73
2020/12/03 09:44:22;;;;;;;821.63;30.90;;;3.60;94.70;;;;;;5058610;28;20021;-73
2020/12/03 09:46:50;;;;;;;953.05;40.10;;;3.60;94.40;;;;;;5059323;28;20357;-73
2020/12/03 09:49:16;;;;;;;813.78;37.13;;;3.50;93.60;;;;;;5058664;28;20044;-74
2020/12/03 09:51:43;;;;;;;961.20;36.47;;;3.40;93.90;;;;;;5058518;28;20024;-74
2020/12/03 09:54:10;;;;;;;729.00;31.92;;;3.40;94.40;;;;;;5058415;28;20025;-73
2020/12/03 09:56:37;;;;;;;480.25;21.48;;;3.40;94.60;;;;;;5058384;28;20025;-74
2020/12/03 09:59:03;;;;;;;444.85;17.98;;;3.40;94.80;;;;;;5058925;28;20116;-74
2020/12/03 10:01:57;;;;;;;872.67;34.53;;;3.40;94.40;;;;;;5057535;28;20088;-73
2020/12/03 10:04:48;;;;;;;566.25;25.20;;;3.40;94.40;;;;;;5058281;28;20139;-74
2020/12/03 10:07:19;;;;;;;403.30;19.85;;;3.40;94.20;;;;;;5066572;28;20043;-73
2020/12/03 10:10:11;;;;;;;765.05;32.15;;;3.40;93.90;;;;;;5070799;28;20120;-73
2020/12/03 10:13:09;;;;;;;1049.10;43.72;;;3.50;94.20;;;;;;5078228;28;20056;-74
2020/12/03 10:15:34;;;;;;;598.25;27.00;;;3.50;94.10;;;;;;5078065;28;20366;-74
2020/12/03 10:18:24;;;;;;;541.75;25.38;;;3.50;93.60;;;;;;5077721;28;20123;-73
2020/12/03 10:20:52;;;;;;;627.35;27.23;;;3.50;93.90;;;;;;5068055;28;20040;-73
2020/12/03 10:24:00;;;;;;;194.98;14.65;;;3.40;93.70;;;;;;5077911;28;20013;-74
2020/12/03 10:26:48;;;;;;;232.77;16.42;;;3.40;94.60;;;;;;5064437;28;20036;-73
2020/12/03 10:29:32;;;;;;;10.20;7.47;;;3.70;94.40;;;;;;5060110;28;20029;-73
2020/12/03 10:32:10;;;;;;;11.40;7.68;;;3.80;93.20;;;;;;5077763;28;20320;-73
2020/12/03 10:34:50;;;;;;;10.48;8.35;;;3.90;93.30;;;;;;5077653;28;20025;-74
2020/12/03 10:37:31;;;;;;;178.52;11.65;;;4.00;92.80;;;;;;5059966;28;20035;-74
2020/12/03 10:40:03;;;;;;;307.77;14.18;;;4.10;93.70;;;;;;5077662;28;20027;-73
2020/12/03 10:42:37;;;;;;;588.67;23.83;;;4.10;92.60;;;;;;5077795;28;20032;-74
2020/12/03 10:45:13;;;;;;;394.98;16.95;;;4.10;92.50;;;;;;5077706;28;20089;-74
2020/12/03 10:47:59;;;;;;;276.55;14.15;;;4.00;93.80;;;;;;5077599;28;20051;-74
2020/12/03 10:50:47;;;;;;;31.80;8.05;;;4.00;93.50;;;;;;5077748;28;20019;-74
2020/12/03 10:53:12;;;;;;;27.50;9.30;;;4.10;93.50;;;;;;5077377;28;20401;-74
2020/12/03 10:55:40;;;;;;;676.67;28.92;;;4.10;93.10;;;;;;5077208;28;20057;-73
2020/12/03 10:58:10;;;;;;;405.00;17.45;;;4.10;93.00;;;;;;5077139;28;20021;-74
2020/12/03 11:00:37;;;;;;;151.75;14.52;;;4.20;92.70;;;;;;5077395;28;20017;-74
2020/12/03 11:03:07;;;;;;;109.03;10.98;;;4.10;91.50;;;;;;5059409;28;20371;-74
2020/12/03 11:05:33;;;;;;;7.57;6.88;;;4.10;93.00;;;;;;5077135;28;20025;-74
2020/12/03 11:08:01;;;;;;;7.80;7.00;;;4.10;92.20;;;;;;5059334;28;20032;-74
2020/12/03 11:10:29;;;;;;;9.57;7.93;;;4.20;90.90;;;;;;5059355;28;20109;-74
2020/12/03 11:13:00;;;;;;;8.15;7.15;;;4.30;91.70;;;;;;5077120;28;20020;-74
2020/12/03 11:15:28;;;;;;;6.50;5.82;;;4.40;91.70;;;;;;5077049;28;20443;-74
2020/12/03 11:18:07;;;;;;;5.97;5.35;;;4.50;89.50;;;;;;5076600;28;20057;-74
2020/12/03 11:20:36;;;;;;;5.53;5.03;;;4.60;91.10;;;;;;5059226;28;20016;-73
2020/12/03 11:23:12;;;;;;;7.80;6.80;;;4.70;89.80;;;;;;5076998;28;20356;-74
2020/12/03 11:25:38;;;;;;;8.30;7.27;;;4.70;90.70;;;;;;5076853;28;20024;-74
2020/12/03 11:28:38;;;;;;;7.65;6.85;;;4.70;90.10;;;;;;5076850;28;20024;-73
2020/12/03 11:31:07;;;;;;;9.20;7.60;;;4.80;90.30;;;;;;5033957;28;20297;-74
2020/12/03 11:33:35;;;;;;;6.85;6.20;;;4.80;89.70;;;;;;5076709;28;20024;-74
2020/12/03 11:36:03;;;;;;;9.82;8.40;;;4.80;89.70;;;;;;5076736;28;20021;-74
2020/12/03 11:38:31;;;;;;;21.27;8.45;;;4.80;92.60;;;;;;5076601;28;20031;-74
2020/12/03 11:40:59;;;;;;;8.45;7.60;;;4.80;92.40;;;;;;5076718;28;20360;-73
2020/12/03 11:49:06;;;;;;;264.60;15.55;;;4.70;91.80;;;;;;5076633;28;20032;-74
2020/12/03 11:51:34;;;;;;;540.25;24.45;;;4.70;92.20;;;;;;5076576;28;20371;-73
2020/12/03 11:54:05;;;;;;;498.48;26.13;;;4.60;92.60;;;;;;5076504;28;20029;-74
2020/12/03 11:56:33;;;;;;;734.33;35.78;;;4.60;93.10;;;;;;5058809;28;20029;-73
2020/12/03 11:59:12;;;;;;;222.18;14.50;;;4.60;92.90;;;;;;5076486;28;20086;-74
2020/12/03 12:01:38;;;;;;;497.05;22.23;;;4.60;93.10;;;;;;5076571;28;20048;-73
2020/12/03 12:04:07;;;;;;;707.30;32.72;;;4.60;92.90;;;;;;5076521;28;20047;-73
2020/12/03 12:06:42;;;;;;;612.40;30.05;;;4.70;94.00;;;;;;5076429;28;20024;-73
2020/12/03 12:09:23;;;;;;;529.00;25.17;;;4.60;92.50;;;;;;5076996;28;20020;-74
2020/12/03 12:11:49;;;;;;;443.00;22.17;;;4.60;93.20;;;;;;5076419;28;20031;-73
2020/12/03 12:14:15;;;;;;;546.33;28.27;;;4.60;93.10;;;;;;5076331;28;20060;-73
2020/12/03 12:16:42;;;;;;;748.65;30.45;;;4.60;93.10;;;;;;5058494;28;20040;-73
2020/12/03 12:19:07;;;;;;;1133.57;49.22;;;4.50;93.30;;;;;;5076528;28;20055;-73
2020/12/03 12:21:34;;;;;;;301.67;20.50;;;4.40;93.30;;;;;;5058586;28;20025;-73
2020/12/03 12:24:00;;;;;;;581.58;28.60;;;4.30;92.90;;;;;;5078296;28;20028;-73
2020/12/03 12:26:27;;;;;;;322.42;17.55;;;4.20;93.50;;;;;;5080193;28;20343;-73
2020/12/03 12:28:53;;;;;;;879.13;41.03;;;4.20;92.70;;;;;;5080127;28;20027;-73
2020/12/03 12:31:19;;;;;;;652.78;29.52;;;4.00;93.30;;;;;;5080153;28;20024;-73
2020/12/03 12:33:45;;;;;;;827.95;36.03;;;3.90;93.80;;;;;;5062281;28;20081;-73
2020/12/03 12:36:10;;;;;;;889.15;40.90;;;3.80;94.40;;;;;;5080415;28;20067;-73
2020/12/03 12:38:36;;;;;;;363.75;21.30;;;3.80;94.20;;;;;;5079872;28;20024;-73
2020/12/03 12:41:02;;;;;;;382.45;22.30;;;3.80;94.00;;;;;;5079937;28;20032;-73
2020/12/03 12:43:27;;;;;;;382.58;27.02;;;3.80;94.40;;;;;;5079892;28;20027;-73
2020/12/03 12:45:53;;;;;;;904.35;43.83;;;3.90;94.90;;;;;;5079993;28;20033;-73
2020/12/03 12:48:19;;;;;;;957.58;40.13;;;3.90;94.40;;;;;;5079724;28;20032;-73
2020/12/03 12:50:45;;;;;;;778.42;34.55;;;3.90;94.50;;;;;;5080002;28;20028;-73
2020/12/03 12:53:10;;;;;;;555.30;29.10;;;3.90;94.40;;;;;;5079658;28;20021;-73
2020/12/03 12:55:36;;;;;;;693.53;36.58;;;4.00;94.00;;;;;;5079541;28;20035;-73
2020/12/03 12:58:02;;;;;;;451.27;22.30;;;3.90;93.80;;;;;;5079530;28;20025;-73
2020/12/03 13:00:27;;;;;;;700.13;34.53;;;3.90;94.20;;;;;;5079743;28;20040;-73
2020/12/03 13:02:53;;;;;;;786.50;34.97;;;4.00;94.20;;;;;;5079417;28;20435;-73
2020/12/03 13:05:19;;;;;;;570.08;24.73;;;4.00;94.10;;;;;;5079678;28;20110;-73
2020/12/03 13:07:44;;;;;;;535.50;26.48;;;4.00;94.40;;;;;;5079402;28;20125;-74
2020/12/03 13:10:10;;;;;;;423.40;19.40;;;3.90;94.20;;;;;;5079510;28;20032;-73
2020/12/03 13:12:36;;;;;;;387.85;17.77;;;3.90;94.30;;;;;;5079301;28;20032;-74
2020/12/03 13:15:02;;;;;;;90.85;8.82;;;3.90;94.10;;;;;;5079174;28;20060;-73